sensor_id;sensor_type;location;lat;lon;timestamp;P1;durP1;ratioP1;P2;durP2;ratioP2
5841;SDS011;2947;52.276;9.946;2023-07-29T00:00:47;4.32;;;1.88;;
5841;SDS011;2947;52.276;9.946;2023-07-29T00:03:13;2.63;;;1.48;;
5841;SDS011;2947;52.276;9.946;2023-07-29T00:05:39;3.13;;;1.73;;
5841;SDS011;2947;52.276;9.946;2023-07-29T00:08:05;7.20;;;1.50;;
5841;SDS011;2947;52.276;9.946;2023-07-29T00:10:31;2.97;;;1.75;;
5841;SDS011;2947;52.276;9.946;2023-07-29T00:12:58;2.70;;;1.52;;
5841;SDS011;2947;52.276;9.946;2023-07-29T00:15:24;3.25;;;2.13;;
5841;SDS011;2947;52.276;9.946;2023-07-29T00:17:49;3.45;;;2.05;;
5841;SDS011;2947;52.276;9.946;2023-07-29T00:20:15;3.40;;;1.70;;
5841;SDS011;2947;52.276;9.946;2023-07-29T00:22:41;2.90;;;1.80;;
5841;SDS011;2947;52.276;9.946;2023-07-29T00:25:06;3.03;;;1.77;;
5841;SDS011;2947;52.276;9.946;2023-07-29T00:27:32;2.83;;;1.60;;
5841;SDS011;2947;52.276;9.946;2023-07-29T00:29:58;2.83;;;1.77;;
5841;SDS011;2947;52.276;9.946;2023-07-29T00:32:24;4.05;;;1.83;;
5841;SDS011;2947;52.276;9.946;2023-07-29T00:34:50;3.72;;;1.88;;
5841;SDS011;2947;52.276;9.946;2023-07-29T00:37:16;3.35;;;1.90;;
5841;SDS011;2947;52.276;9.946;2023-07-29T00:39:41;6.80;;;1.98;;
5841;SDS011;2947;52.276;9.946;2023-07-29T00:42:08;3.28;;;2.00;;
5841;SDS011;2947;52.276;9.946;2023-07-29T00:44:34;3.83;;;1.75;;
5841;SDS011;2947;52.276;9.946;2023-07-29T00:47:00;3.80;;;2.45;;
5841;SDS011;2947;52.276;9.946;2023-07-29T00:49:30;4.25;;;1.95;;
5841;SDS011;2947;52.276;9.946;2023-07-29T00:51:56;4.68;;;1.88;;
5841;SDS011;2947;52.276;9.946;2023-07-29T00:54:22;3.45;;;1.70;;
5841;SDS011;2947;52.276;9.946;2023-07-29T00:56:48;2.92;;;1.60;;
5841;SDS011;2947;52.276;9.946;2023-07-29T00:59:14;5.07;;;2.20;;
5841;SDS011;2947;52.276;9.946;2023-07-29T01:01:40;5.05;;;1.80;;
5841;SDS011;2947;52.276;9.946;2023-07-29T01:04:07;3.17;;;1.98;;
5841;SDS011;2947;52.276;9.946;2023-07-29T01:18:26;8.23;;;1.95;;
5841;SDS011;2947;52.276;9.946;2023-07-29T01:20:57;4.97;;;2.13;;
5841;SDS011;2947;52.276;9.946;2023-07-29T01:23:25;3.15;;;1.90;;
5841;SDS011;2947;52.276;9.946;2023-07-29T01:25:56;2.50;;;1.52;;
5841;SDS011;2947;52.276;9.946;2023-07-29T01:28:21;4.30;;;1.95;;
5841;SDS011;2947;52.276;9.946;2023-07-29T01:30:49;3.85;;;2.30;;
5841;SDS011;2947;52.276;9.946;2023-07-29T01:33:25;3.45;;;2.15;;
5841;SDS011;2947;52.276;9.946;2023-07-29T01:35:54;3.95;;;2.05;;
5841;SDS011;2947;52.276;9.946;2023-07-29T01:38:33;3.20;;;2.00;;
5841;SDS011;2947;52.276;9.946;2023-07-29T01:41:01;3.30;;;1.95;;
5841;SDS011;2947;52.276;9.946;2023-07-29T01:43:31;3.08;;;1.90;;
5841;SDS011;2947;52.276;9.946;2023-07-29T01:45:58;4.55;;;2.20;;
5841;SDS011;2947;52.276;9.946;2023-07-29T01:48:25;5.82;;;1.83;;
5841;SDS011;2947;52.276;9.946;2023-07-29T01:50:52;3.08;;;2.17;;
5841;SDS011;2947;52.276;9.946;2023-07-29T01:53:18;3.25;;;2.17;;
5841;SDS011;2947;52.276;9.946;2023-07-29T01:55:44;4.05;;;2.15;;
5841;SDS011;2947;52.276;9.946;2023-07-29T01:58:10;3.47;;;2.40;;
5841;SDS011;2947;52.276;9.946;2023-07-29T02:00:36;4.00;;;2.10;;
5841;SDS011;2947;52.276;9.946;2023-07-29T02:03:02;3.92;;;2.10;;
5841;SDS011;2947;52.276;9.946;2023-07-29T02:05:27;7.47;;;2.08;;
5841;SDS011;2947;52.276;9.946;2023-07-29T02:07:53;4.18;;;2.47;;
5841;SDS011;2947;52.276;9.946;2023-07-29T02:10:19;7.43;;;2.38;;
5841;SDS011;2947;52.276;9.946;2023-07-29T02:12:44;4.30;;;2.60;;
5841;SDS011;2947;52.276;9.946;2023-07-29T02:15:10;4.00;;;2.50;;
5841;SDS011;2947;52.276;9.946;2023-07-29T02:17:36;2.78;;;1.90;;
5841;SDS011;2947;52.276;9.946;2023-07-29T02:20:02;3.47;;;2.08;;
5841;SDS011;2947;52.276;9.946;2023-07-29T02:22:29;3.45;;;2.17;;
5841;SDS011;2947;52.276;9.946;2023-07-29T02:24:55;5.03;;;1.98;;
5841;SDS011;2947;52.276;9.946;2023-07-29T02:27:20;3.65;;;1.85;;
5841;SDS011;2947;52.276;9.946;2023-07-29T02:29:46;4.72;;;2.58;;
5841;SDS011;2947;52.276;9.946;2023-07-29T02:32:12;3.17;;;1.92;;
5841;SDS011;2947;52.276;9.946;2023-07-29T02:34:38;4.10;;;2.08;;
5841;SDS011;2947;52.276;9.946;2023-07-29T02:37:04;8.65;;;2.00;;
5841;SDS011;2947;52.276;9.946;2023-07-29T02:39:30;4.55;;;1.83;;
5841;SDS011;2947;52.276;9.946;2023-07-29T02:41:56;3.70;;;1.98;;
5841;SDS011;2947;52.276;9.946;2023-07-29T02:44:23;3.38;;;2.03;;
5841;SDS011;2947;52.276;9.946;2023-07-29T02:46:49;5.57;;;2.28;;
5841;SDS011;2947;52.276;9.946;2023-07-29T02:49:14;2.55;;;1.33;;
5841;SDS011;2947;52.276;9.946;2023-07-29T02:51:40;3.00;;;1.60;;
5841;SDS011;2947;52.276;9.946;2023-07-29T02:54:06;3.25;;;2.03;;
5841;SDS011;2947;52.276;9.946;2023-07-29T02:56:31;3.35;;;1.63;;
5841;SDS011;2947;52.276;9.946;2023-07-29T02:58:57;3.10;;;1.98;;
5841;SDS011;2947;52.276;9.946;2023-07-29T03:01:23;4.40;;;2.30;;
5841;SDS011;2947;52.276;9.946;2023-07-29T03:03:50;4.28;;;2.08;;
5841;SDS011;2947;52.276;9.946;2023-07-29T03:06:16;3.67;;;1.80;;
5841;SDS011;2947;52.276;9.946;2023-07-29T03:08:41;8.35;;;1.60;;
5841;SDS011;2947;52.276;9.946;2023-07-29T03:11:09;3.28;;;1.73;;
5841;SDS011;2947;52.276;9.946;2023-07-29T03:13:38;3.33;;;1.67;;
5841;SDS011;2947;52.276;9.946;2023-07-29T03:16:11;5.38;;;2.17;;
5841;SDS011;2947;52.276;9.946;2023-07-29T03:18:39;3.10;;;2.00;;
5841;SDS011;2947;52.276;9.946;2023-07-29T03:21:06;7.00;;;1.85;;
5841;SDS011;2947;52.276;9.946;2023-07-29T03:23:32;3.78;;;2.00;;
5841;SDS011;2947;52.276;9.946;2023-07-29T03:25:59;3.53;;;1.85;;
5841;SDS011;2947;52.276;9.946;2023-07-29T03:28:29;4.25;;;2.20;;
5841;SDS011;2947;52.276;9.946;2023-07-29T03:30:58;3.50;;;1.92;;
5841;SDS011;2947;52.276;9.946;2023-07-29T03:33:24;3.85;;;1.65;;
5841;SDS011;2947;52.276;9.946;2023-07-29T03:35:51;4.50;;;2.08;;
5841;SDS011;2947;52.276;9.946;2023-07-29T03:38:17;3.53;;;2.08;;
5841;SDS011;2947;52.276;9.946;2023-07-29T03:40:43;6.65;;;2.35;;
5841;SDS011;2947;52.276;9.946;2023-07-29T03:43:09;10.00;;;2.33;;
5841;SDS011;2947;52.276;9.946;2023-07-29T03:45:35;4.65;;;2.20;;
5841;SDS011;2947;52.276;9.946;2023-07-29T03:48:02;3.55;;;2.22;;
5841;SDS011;2947;52.276;9.946;2023-07-29T03:50:29;4.10;;;2.03;;
5841;SDS011;2947;52.276;9.946;2023-07-29T03:52:55;10.20;;;2.78;;
5841;SDS011;2947;52.276;9.946;2023-07-29T03:55:21;10.65;;;2.30;;
5841;SDS011;2947;52.276;9.946;2023-07-29T03:57:47;8.45;;;2.28;;
5841;SDS011;2947;52.276;9.946;2023-07-29T04:00:13;5.13;;;2.70;;
5841;SDS011;2947;52.276;9.946;2023-07-29T04:02:39;12.32;;;2.50;;
5841;SDS011;2947;52.276;9.946;2023-07-29T04:05:06;11.65;;;2.90;;
5841;SDS011;2947;52.276;9.946;2023-07-29T04:07:33;6.63;;;2.78;;
5841;SDS011;2947;52.276;9.946;2023-07-29T04:10:00;3.28;;;2.10;;
5841;SDS011;2947;52.276;9.946;2023-07-29T04:12:26;4.03;;;2.40;;
5841;SDS011;2947;52.276;9.946;2023-07-29T04:14:52;6.03;;;2.28;;
5841;SDS011;2947;52.276;9.946;2023-07-29T04:17:18;5.25;;;2.92;;
5841;SDS011;2947;52.276;9.946;2023-07-29T04:19:44;4.90;;;2.25;;
5841;SDS011;2947;52.276;9.946;2023-07-29T04:22:09;4.35;;;2.33;;
5841;SDS011;2947;52.276;9.946;2023-07-29T04:24:35;7.88;;;2.30;;
5841;SDS011;2947;52.276;9.946;2023-07-29T04:27:01;4.53;;;2.40;;
5841;SDS011;2947;52.276;9.946;2023-07-29T04:29:27;3.85;;;2.03;;
5841;SDS011;2947;52.276;9.946;2023-07-29T04:31:53;4.82;;;2.28;;
5841;SDS011;2947;52.276;9.946;2023-07-29T04:34:19;3.20;;;2.05;;
5841;SDS011;2947;52.276;9.946;2023-07-29T04:36:45;5.15;;;2.30;;
5841;SDS011;2947;52.276;9.946;2023-07-29T04:39:11;2.97;;;2.00;;
5841;SDS011;2947;52.276;9.946;2023-07-29T04:41:37;3.85;;;2.33;;
5841;SDS011;2947;52.276;9.946;2023-07-29T04:44:03;3.55;;;2.22;;
5841;SDS011;2947;52.276;9.946;2023-07-29T04:46:29;3.42;;;2.10;;
5841;SDS011;2947;52.276;9.946;2023-07-29T04:48:55;3.55;;;2.28;;
5841;SDS011;2947;52.276;9.946;2023-07-29T04:51:21;4.70;;;1.88;;
5841;SDS011;2947;52.276;9.946;2023-07-29T04:53:46;3.85;;;2.30;;
5841;SDS011;2947;52.276;9.946;2023-07-29T04:56:12;5.07;;;2.10;;
5841;SDS011;2947;52.276;9.946;2023-07-29T04:58:38;5.60;;;2.05;;
5841;SDS011;2947;52.276;9.946;2023-07-29T05:01:04;3.22;;;1.58;;
5841;SDS011;2947;52.276;9.946;2023-07-29T05:03:30;3.35;;;2.10;;
5841;SDS011;2947;52.276;9.946;2023-07-29T05:05:57;4.65;;;2.17;;
5841;SDS011;2947;52.276;9.946;2023-07-29T05:08:24;4.18;;;2.28;;
5841;SDS011;2947;52.276;9.946;2023-07-29T05:10:52;3.38;;;2.03;;
5841;SDS011;2947;52.276;9.946;2023-07-29T05:13:19;4.35;;;2.20;;
5841;SDS011;2947;52.276;9.946;2023-07-29T05:15:45;3.80;;;2.15;;
5841;SDS011;2947;52.276;9.946;2023-07-29T05:18:13;13.32;;;2.03;;
5841;SDS011;2947;52.276;9.946;2023-07-29T05:20:39;5.35;;;2.15;;
5841;SDS011;2947;52.276;9.946;2023-07-29T05:23:05;3.95;;;2.30;;
5841;SDS011;2947;52.276;9.946;2023-07-29T05:25:30;5.88;;;2.50;;
5841;SDS011;2947;52.276;9.946;2023-07-29T05:27:56;5.18;;;2.50;;
5841;SDS011;2947;52.276;9.946;2023-07-29T05:30:22;5.45;;;2.25;;
5841;SDS011;2947;52.276;9.946;2023-07-29T05:32:48;4.43;;;2.17;;
5841;SDS011;2947;52.276;9.946;2023-07-29T05:35:14;3.25;;;1.90;;
5841;SDS011;2947;52.276;9.946;2023-07-29T05:37:39;3.38;;;2.10;;
5841;SDS011;2947;52.276;9.946;2023-07-29T05:40:06;4.20;;;2.20;;
5841;SDS011;2947;52.276;9.946;2023-07-29T05:42:33;3.70;;;2.00;;
5841;SDS011;2947;52.276;9.946;2023-07-29T05:45:00;3.55;;;2.17;;
5841;SDS011;2947;52.276;9.946;2023-07-29T05:47:26;12.95;;;2.33;;
5841;SDS011;2947;52.276;9.946;2023-07-29T05:49:52;3.50;;;2.00;;
5841;SDS011;2947;52.276;9.946;2023-07-29T05:52:18;6.20;;;2.03;;
5841;SDS011;2947;52.276;9.946;2023-07-29T05:54:44;4.50;;;2.38;;
5841;SDS011;2947;52.276;9.946;2023-07-29T05:57:10;4.32;;;2.30;;
5841;SDS011;2947;52.276;9.946;2023-07-29T05:59:36;4.63;;;2.67;;
5841;SDS011;2947;52.276;9.946;2023-07-29T06:02:02;4.35;;;2.00;;
5841;SDS011;2947;52.276;9.946;2023-07-29T06:04:29;6.95;;;2.55;;
5841;SDS011;2947;52.276;9.946;2023-07-29T06:06:54;4.18;;;2.17;;
5841;SDS011;2947;52.276;9.946;2023-07-29T06:09:21;4.40;;;2.45;;
5841;SDS011;2947;52.276;9.946;2023-07-29T06:11:50;5.85;;;2.63;;
5841;SDS011;2947;52.276;9.946;2023-07-29T06:14:16;8.27;;;2.80;;
5841;SDS011;2947;52.276;9.946;2023-07-29T06:16:42;5.32;;;2.30;;
5841;SDS011;2947;52.276;9.946;2023-07-29T06:19:07;3.15;;;2.20;;
5841;SDS011;2947;52.276;9.946;2023-07-29T06:21:34;7.85;;;2.70;;
5841;SDS011;2947;52.276;9.946;2023-07-29T06:24:00;3.45;;;2.35;;
5841;SDS011;2947;52.276;9.946;2023-07-29T06:26:27;4.32;;;2.70;;
5841;SDS011;2947;52.276;9.946;2023-07-29T06:28:53;4.57;;;2.80;;
5841;SDS011;2947;52.276;9.946;2023-07-29T06:31:19;6.05;;;2.42;;
5841;SDS011;2947;52.276;9.946;2023-07-29T06:33:44;3.35;;;2.30;;
5841;SDS011;2947;52.276;9.946;2023-07-29T06:36:10;4.93;;;2.35;;
5841;SDS011;2947;52.276;9.946;2023-07-29T06:38:36;14.52;;;2.40;;
5841;SDS011;2947;52.276;9.946;2023-07-29T06:41:03;11.70;;;3.17;;
5841;SDS011;2947;52.276;9.946;2023-07-29T06:43:29;5.95;;;2.10;;
5841;SDS011;2947;52.276;9.946;2023-07-29T06:45:55;11.30;;;2.03;;
5841;SDS011;2947;52.276;9.946;2023-07-29T06:48:20;5.50;;;2.35;;
5841;SDS011;2947;52.276;9.946;2023-07-29T06:50:46;6.38;;;3.47;;
5841;SDS011;2947;52.276;9.946;2023-07-29T06:53:12;11.15;;;2.35;;
5841;SDS011;2947;52.276;9.946;2023-07-29T06:55:37;6.50;;;2.58;;
5841;SDS011;2947;52.276;9.946;2023-07-29T06:58:04;3.95;;;2.20;;
5841;SDS011;2947;52.276;9.946;2023-07-29T07:00:29;4.30;;;2.50;;
5841;SDS011;2947;52.276;9.946;2023-07-29T07:02:55;4.35;;;2.90;;
5841;SDS011;2947;52.276;9.946;2023-07-29T07:05:21;3.60;;;2.08;;
5841;SDS011;2947;52.276;9.946;2023-07-29T07:07:46;7.55;;;2.17;;
5841;SDS011;2947;52.276;9.946;2023-07-29T07:10:14;4.85;;;2.88;;
5841;SDS011;2947;52.276;9.946;2023-07-29T07:12:40;3.25;;;2.17;;
5841;SDS011;2947;52.276;9.946;2023-07-29T07:15:06;5.60;;;2.17;;
5841;SDS011;2947;52.276;9.946;2023-07-29T07:17:32;3.60;;;2.20;;
5841;SDS011;2947;52.276;9.946;2023-07-29T07:19:58;3.50;;;1.95;;
5841;SDS011;2947;52.276;9.946;2023-07-29T07:22:24;4.53;;;2.15;;
5841;SDS011;2947;52.276;9.946;2023-07-29T07:24:49;5.25;;;1.80;;
5841;SDS011;2947;52.276;9.946;2023-07-29T07:27:15;11.27;;;2.22;;
5841;SDS011;2947;52.276;9.946;2023-07-29T07:29:41;4.15;;;1.80;;
5841;SDS011;2947;52.276;9.946;2023-07-29T07:32:06;6.60;;;1.77;;
5841;SDS011;2947;52.276;9.946;2023-07-29T07:34:32;3.45;;;1.90;;
5841;SDS011;2947;52.276;9.946;2023-07-29T07:36:59;3.05;;;1.50;;
5841;SDS011;2947;52.276;9.946;2023-07-29T07:39:25;5.03;;;2.20;;
5841;SDS011;2947;52.276;9.946;2023-07-29T07:41:51;2.40;;;1.40;;
5841;SDS011;2947;52.276;9.946;2023-07-29T07:44:17;2.75;;;1.38;;
5841;SDS011;2947;52.276;9.946;2023-07-29T07:46:44;2.55;;;1.45;;
5841;SDS011;2947;52.276;9.946;2023-07-29T07:49:10;2.90;;;1.40;;
5841;SDS011;2947;52.276;9.946;2023-07-29T07:51:37;4.93;;;1.63;;
5841;SDS011;2947;52.276;9.946;2023-07-29T07:54:04;4.13;;;1.45;;
5841;SDS011;2947;52.276;9.946;2023-07-29T07:56:29;2.60;;;1.30;;
5841;SDS011;2947;52.276;9.946;2023-07-29T07:58:55;6.15;;;1.20;;
5841;SDS011;2947;52.276;9.946;2023-07-29T08:01:21;2.65;;;1.00;;
5841;SDS011;2947;52.276;9.946;2023-07-29T08:03:46;3.65;;;1.60;;
5841;SDS011;2947;52.276;9.946;2023-07-29T08:06:12;2.60;;;1.33;;
5841;SDS011;2947;52.276;9.946;2023-07-29T08:08:38;6.68;;;1.20;;
5841;SDS011;2947;52.276;9.946;2023-07-29T08:11:04;5.15;;;1.30;;
5841;SDS011;2947;52.276;9.946;2023-07-29T08:13:29;2.63;;;1.40;;
5841;SDS011;2947;52.276;9.946;2023-07-29T08:15:55;2.85;;;1.40;;
5841;SDS011;2947;52.276;9.946;2023-07-29T08:18:21;2.40;;;1.30;;
5841;SDS011;2947;52.276;9.946;2023-07-29T08:20:56;2.95;;;1.30;;
5841;SDS011;2947;52.276;9.946;2023-07-29T08:23:29;2.60;;;1.50;;
5841;SDS011;2947;52.276;9.946;2023-07-29T08:25:57;3.50;;;1.20;;
5841;SDS011;2947;52.276;9.946;2023-07-29T08:28:26;2.20;;;1.27;;
5841;SDS011;2947;52.276;9.946;2023-07-29T08:31:03;2.85;;;1.17;;
5841;SDS011;2947;52.276;9.946;2023-07-29T08:33:29;2.58;;;1.70;;
5841;SDS011;2947;52.276;9.946;2023-07-29T08:35:57;6.72;;;2.55;;
5841;SDS011;2947;52.276;9.946;2023-07-29T08:38:23;4.25;;;1.58;;
5841;SDS011;2947;52.276;9.946;2023-07-29T08:43:32;3.38;;;1.63;;
5841;SDS011;2947;52.276;9.946;2023-07-29T08:45:59;2.70;;;1.60;;
5841;SDS011;2947;52.276;9.946;2023-07-29T08:48:41;2.60;;;1.58;;
5841;SDS011;2947;52.276;9.946;2023-07-29T08:51:08;2.55;;;1.80;;
5841;SDS011;2947;52.276;9.946;2023-07-29T08:53:36;3.30;;;1.75;;
5841;SDS011;2947;52.276;9.946;2023-07-29T08:56:02;2.88;;;1.73;;
5841;SDS011;2947;52.276;9.946;2023-07-29T08:58:30;4.07;;;2.00;;
5841;SDS011;2947;52.276;9.946;2023-07-29T09:00:56;3.33;;;1.80;;
5841;SDS011;2947;52.276;9.946;2023-07-29T09:03:22;6.22;;;2.08;;
5841;SDS011;2947;52.276;9.946;2023-07-29T09:05:47;3.85;;;1.90;;
5841;SDS011;2947;52.276;9.946;2023-07-29T09:08:14;2.78;;;1.85;;
5841;SDS011;2947;52.276;9.946;2023-07-29T09:10:40;3.50;;;2.28;;
5841;SDS011;2947;52.276;9.946;2023-07-29T09:13:06;2.90;;;1.80;;
5841;SDS011;2947;52.276;9.946;2023-07-29T09:15:33;3.85;;;1.95;;
5841;SDS011;2947;52.276;9.946;2023-07-29T09:18:10;3.80;;;2.00;;
5841;SDS011;2947;52.276;9.946;2023-07-29T09:20:41;2.78;;;1.85;;
5841;SDS011;2947;52.276;9.946;2023-07-29T09:23:08;3.85;;;2.33;;
5841;SDS011;2947;52.276;9.946;2023-07-29T09:25:36;5.57;;;2.20;;
5841;SDS011;2947;52.276;9.946;2023-07-29T09:28:12;4.75;;;2.67;;
5841;SDS011;2947;52.276;9.946;2023-07-29T09:30:40;4.15;;;1.95;;
5841;SDS011;2947;52.276;9.946;2023-07-29T09:33:10;2.85;;;2.17;;
5841;SDS011;2947;52.276;9.946;2023-07-29T09:35:37;3.20;;;2.35;;
5841;SDS011;2947;52.276;9.946;2023-07-29T09:38:06;3.00;;;2.40;;
5841;SDS011;2947;52.276;9.946;2023-07-29T09:40:36;2.92;;;2.10;;
5841;SDS011;2947;52.276;9.946;2023-07-29T09:43:03;3.00;;;2.10;;
5841;SDS011;2947;52.276;9.946;2023-07-29T09:45:32;3.15;;;2.38;;
5841;SDS011;2947;52.276;9.946;2023-07-29T09:48:00;9.15;;;3.10;;
5841;SDS011;2947;52.276;9.946;2023-07-29T09:50:26;4.57;;;3.15;;
5841;SDS011;2947;52.276;9.946;2023-07-29T09:52:53;4.38;;;3.35;;
5841;SDS011;2947;52.276;9.946;2023-07-29T09:55:23;5.20;;;2.60;;
5841;SDS011;2947;52.276;9.946;2023-07-29T09:57:56;4.05;;;3.00;;
5841;SDS011;2947;52.276;9.946;2023-07-29T10:00:25;4.18;;;3.10;;
5841;SDS011;2947;52.276;9.946;2023-07-29T10:02:53;4.90;;;3.58;;
5841;SDS011;2947;52.276;9.946;2023-07-29T10:05:19;4.68;;;3.92;;
5841;SDS011;2947;52.276;9.946;2023-07-29T10:07:47;4.97;;;3.72;;
5841;SDS011;2947;52.276;9.946;2023-07-29T10:10:14;5.80;;;4.40;;
5841;SDS011;2947;52.276;9.946;2023-07-29T10:12:41;7.25;;;5.40;;
5841;SDS011;2947;52.276;9.946;2023-07-29T10:15:08;8.05;;;5.82;;
5841;SDS011;2947;52.276;9.946;2023-07-29T10:17:35;9.82;;;7.03;;
5841;SDS011;2947;52.276;9.946;2023-07-29T10:20:06;10.63;;;7.10;;
5841;SDS011;2947;52.276;9.946;2023-07-29T10:22:38;8.85;;;7.07;;
5841;SDS011;2947;52.276;9.946;2023-07-29T10:25:16;8.63;;;6.68;;
5841;SDS011;2947;52.276;9.946;2023-07-29T10:27:54;8.13;;;6.65;;
5841;SDS011;2947;52.276;9.946;2023-07-29T10:30:24;10.32;;;7.40;;
5841;SDS011;2947;52.276;9.946;2023-07-29T10:32:50;10.02;;;6.63;;
5841;SDS011;2947;52.276;9.946;2023-07-29T10:35:18;7.30;;;5.80;;
5841;SDS011;2947;52.276;9.946;2023-07-29T10:37:44;7.78;;;5.80;;
5841;SDS011;2947;52.276;9.946;2023-07-29T10:40:11;7.95;;;5.68;;
5841;SDS011;2947;52.276;9.946;2023-07-29T10:42:37;7.78;;;6.70;;
5841;SDS011;2947;52.276;9.946;2023-07-29T10:45:22;7.95;;;5.07;;
5841;SDS011;2947;52.276;9.946;2023-07-29T10:47:48;6.10;;;5.07;;
5841;SDS011;2947;52.276;9.946;2023-07-29T10:50:17;6.65;;;4.93;;
5841;SDS011;2947;52.276;9.946;2023-07-29T10:52:48;7.00;;;5.57;;
5841;SDS011;2947;52.276;9.946;2023-07-29T10:55:23;6.25;;;4.85;;
5841;SDS011;2947;52.276;9.946;2023-07-29T10:58:06;6.05;;;4.78;;
5841;SDS011;2947;52.276;9.946;2023-07-29T11:00:43;7.32;;;5.32;;
5841;SDS011;2947;52.276;9.946;2023-07-29T11:03:09;5.15;;;4.30;;
5841;SDS011;2947;52.276;9.946;2023-07-29T11:08:27;5.18;;;3.55;;
5841;SDS011;2947;52.276;9.946;2023-07-29T11:10:58;5.25;;;3.70;;
5841;SDS011;2947;52.276;9.946;2023-07-29T11:13:30;5.20;;;3.63;;
5841;SDS011;2947;52.276;9.946;2023-07-29T11:15:58;4.82;;;3.85;;
5841;SDS011;2947;52.276;9.946;2023-07-29T11:18:28;4.40;;;3.33;;
5841;SDS011;2947;52.276;9.946;2023-07-29T11:20:59;4.88;;;3.47;;
5841;SDS011;2947;52.276;9.946;2023-07-29T11:23:29;5.78;;;3.67;;
5841;SDS011;2947;52.276;9.946;2023-07-29T11:26:00;4.65;;;3.38;;
5841;SDS011;2947;52.276;9.946;2023-07-29T11:28:28;5.38;;;3.35;;
5841;SDS011;2947;52.276;9.946;2023-07-29T11:31:03;4.65;;;3.40;;
5841;SDS011;2947;52.276;9.946;2023-07-29T11:33:28;4.68;;;3.25;;
5841;SDS011;2947;52.276;9.946;2023-07-29T11:35:55;5.03;;;3.28;;
5841;SDS011;2947;52.276;9.946;2023-07-29T11:38:21;4.60;;;3.38;;
5841;SDS011;2947;52.276;9.946;2023-07-29T11:40:54;6.05;;;3.25;;
5841;SDS011;2947;52.276;9.946;2023-07-29T11:43:26;5.50;;;3.60;;
5841;SDS011;2947;52.276;9.946;2023-07-29T11:45:52;5.07;;;3.25;;
5841;SDS011;2947;52.276;9.946;2023-07-29T11:48:18;3.95;;;3.15;;
5841;SDS011;2947;52.276;9.946;2023-07-29T11:50:52;3.80;;;2.72;;
5841;SDS011;2947;52.276;9.946;2023-07-29T11:53:20;5.03;;;2.03;;
5841;SDS011;2947;52.276;9.946;2023-07-29T11:55:49;3.03;;;1.83;;
5841;SDS011;2947;52.276;9.946;2023-07-29T11:58:17;3.55;;;2.22;;
5841;SDS011;2947;52.276;9.946;2023-07-29T12:00:43;4.75;;;2.78;;
5841;SDS011;2947;52.276;9.946;2023-07-29T12:03:09;6.60;;;2.22;;
5841;SDS011;2947;52.276;9.946;2023-07-29T12:05:35;3.97;;;1.88;;
5841;SDS011;2947;52.276;9.946;2023-07-29T12:08:01;4.55;;;1.40;;
5841;SDS011;2947;52.276;9.946;2023-07-29T12:10:27;3.08;;;1.50;;
5841;SDS011;2947;52.276;9.946;2023-07-29T12:12:53;3.10;;;1.17;;
5841;SDS011;2947;52.276;9.946;2023-07-29T12:15:23;4.05;;;1.20;;
5841;SDS011;2947;52.276;9.946;2023-07-29T12:17:58;3.28;;;1.20;;
5841;SDS011;2947;52.276;9.946;2023-07-29T12:20:28;5.88;;;1.05;;
5841;SDS011;2947;52.276;9.946;2023-07-29T12:22:58;2.45;;;1.13;;
5841;SDS011;2947;52.276;9.946;2023-07-29T12:25:30;2.50;;;1.02;;
5841;SDS011;2947;52.276;9.946;2023-07-29T12:27:55;3.20;;;1.00;;
5841;SDS011;2947;52.276;9.946;2023-07-29T12:30:26;3.83;;;1.23;;
5841;SDS011;2947;52.276;9.946;2023-07-29T12:32:51;3.38;;;1.30;;
5841;SDS011;2947;52.276;9.946;2023-07-29T12:35:17;3.13;;;1.05;;
5841;SDS011;2947;52.276;9.946;2023-07-29T12:37:43;2.50;;;1.08;;
5841;SDS011;2947;52.276;9.946;2023-07-29T12:40:24;2.60;;;1.00;;
5841;SDS011;2947;52.276;9.946;2023-07-29T12:42:51;2.75;;;1.00;;
5841;SDS011;2947;52.276;9.946;2023-07-29T12:45:17;4.35;;;1.30;;
5841;SDS011;2947;52.276;9.946;2023-07-29T12:47:43;2.30;;;1.00;;
5841;SDS011;2947;52.276;9.946;2023-07-29T12:50:09;2.40;;;1.02;;
5841;SDS011;2947;52.276;9.946;2023-07-29T12:52:35;2.80;;;0.93;;
5841;SDS011;2947;52.276;9.946;2023-07-29T12:55:01;3.13;;;1.20;;
5841;SDS011;2947;52.276;9.946;2023-07-29T12:57:26;4.60;;;1.05;;
5841;SDS011;2947;52.276;9.946;2023-07-29T12:59:52;3.13;;;0.85;;
5841;SDS011;2947;52.276;9.946;2023-07-29T13:02:18;3.25;;;0.90;;
5841;SDS011;2947;52.276;9.946;2023-07-29T13:04:44;2.80;;;1.08;;
5841;SDS011;2947;52.276;9.946;2023-07-29T13:07:09;2.50;;;0.98;;
5841;SDS011;2947;52.276;9.946;2023-07-29T13:09:35;4.35;;;0.93;;
5841;SDS011;2947;52.276;9.946;2023-07-29T13:12:01;5.72;;;0.70;;
5841;SDS011;2947;52.276;9.946;2023-07-29T13:14:26;2.20;;;0.80;;
5841;SDS011;2947;52.276;9.946;2023-07-29T13:16:52;4.63;;;1.15;;
5841;SDS011;2947;52.276;9.946;2023-07-29T13:19:18;2.53;;;1.00;;
5841;SDS011;2947;52.276;9.946;2023-07-29T13:21:44;2.20;;;0.90;;
5841;SDS011;2947;52.276;9.946;2023-07-29T13:24:09;2.20;;;0.80;;
5841;SDS011;2947;52.276;9.946;2023-07-29T13:26:35;2.30;;;0.90;;
5841;SDS011;2947;52.276;9.946;2023-07-29T13:29:01;3.47;;;1.02;;
5841;SDS011;2947;52.276;9.946;2023-07-29T13:31:27;2.65;;;1.10;;
5841;SDS011;2947;52.276;9.946;2023-07-29T13:33:52;2.33;;;0.93;;
5841;SDS011;2947;52.276;9.946;2023-07-29T13:36:18;6.25;;;1.13;;
5841;SDS011;2947;52.276;9.946;2023-07-29T13:38:44;2.30;;;0.80;;
5841;SDS011;2947;52.276;9.946;2023-07-29T13:41:10;2.53;;;0.85;;
5841;SDS011;2947;52.276;9.946;2023-07-29T13:43:35;2.40;;;1.10;;
5841;SDS011;2947;52.276;9.946;2023-07-29T13:46:01;3.10;;;0.90;;
5841;SDS011;2947;52.276;9.946;2023-07-29T13:48:27;3.55;;;1.00;;
5841;SDS011;2947;52.276;9.946;2023-07-29T13:50:52;4.93;;;0.80;;
5841;SDS011;2947;52.276;9.946;2023-07-29T13:53:18;2.42;;;1.05;;
5841;SDS011;2947;52.276;9.946;2023-07-29T13:55:44;2.30;;;1.00;;
5841;SDS011;2947;52.276;9.946;2023-07-29T13:58:09;2.80;;;1.00;;
5841;SDS011;2947;52.276;9.946;2023-07-29T14:00:35;3.55;;;0.98;;
5841;SDS011;2947;52.276;9.946;2023-07-29T14:03:01;2.33;;;0.95;;
5841;SDS011;2947;52.276;9.946;2023-07-29T14:05:27;2.42;;;0.82;;
5841;SDS011;2947;52.276;9.946;2023-07-29T14:07:53;2.80;;;0.85;;
5841;SDS011;2947;52.276;9.946;2023-07-29T14:10:19;2.20;;;0.75;;
5841;SDS011;2947;52.276;9.946;2023-07-29T14:12:45;2.20;;;0.80;;
5841;SDS011;2947;52.276;9.946;2023-07-29T14:15:10;2.72;;;0.90;;
5841;SDS011;2947;52.276;9.946;2023-07-29T14:17:36;2.42;;;0.80;;
5841;SDS011;2947;52.276;9.946;2023-07-29T14:20:02;3.90;;;1.08;;
5841;SDS011;2947;52.276;9.946;2023-07-29T14:22:29;2.88;;;1.10;;
5841;SDS011;2947;52.276;9.946;2023-07-29T14:24:55;2.20;;;0.82;;
5841;SDS011;2947;52.276;9.946;2023-07-29T14:27:21;3.90;;;1.20;;
5841;SDS011;2947;52.276;9.946;2023-07-29T14:29:46;2.80;;;1.00;;
5841;SDS011;2947;52.276;9.946;2023-07-29T14:32:12;2.13;;;0.73;;
5841;SDS011;2947;52.276;9.946;2023-07-29T14:34:38;2.20;;;0.85;;
5841;SDS011;2947;52.276;9.946;2023-07-29T14:37:04;2.45;;;1.08;;
5841;SDS011;2947;52.276;9.946;2023-07-29T14:39:30;3.10;;;1.00;;
5841;SDS011;2947;52.276;9.946;2023-07-29T14:41:56;2.58;;;1.02;;
5841;SDS011;2947;52.276;9.946;2023-07-29T14:44:21;2.50;;;1.13;;
5841;SDS011;2947;52.276;9.946;2023-07-29T14:46:47;2.50;;;1.02;;
5841;SDS011;2947;52.276;9.946;2023-07-29T14:49:13;2.25;;;0.95;;
5841;SDS011;2947;52.276;9.946;2023-07-29T14:51:39;2.65;;;0.90;;
5841;SDS011;2947;52.276;9.946;2023-07-29T14:54:04;2.25;;;0.90;;
5841;SDS011;2947;52.276;9.946;2023-07-29T14:56:30;2.63;;;0.80;;
5841;SDS011;2947;52.276;9.946;2023-07-29T14:58:56;2.50;;;0.90;;
5841;SDS011;2947;52.276;9.946;2023-07-29T15:01:21;3.05;;;1.13;;
5841;SDS011;2947;52.276;9.946;2023-07-29T15:03:47;6.55;;;1.23;;
5841;SDS011;2947;52.276;9.946;2023-07-29T15:06:13;3.03;;;0.93;;
5841;SDS011;2947;52.276;9.946;2023-07-29T15:08:38;6.00;;;1.30;;
5841;SDS011;2947;52.276;9.946;2023-07-29T15:11:04;2.45;;;1.13;;
5841;SDS011;2947;52.276;9.946;2023-07-29T15:13:30;2.95;;;1.02;;
5841;SDS011;2947;52.276;9.946;2023-07-29T15:15:56;2.30;;;0.90;;
5841;SDS011;2947;52.276;9.946;2023-07-29T15:18:22;2.30;;;0.90;;
5841;SDS011;2947;52.276;9.946;2023-07-29T15:20:47;2.80;;;1.20;;
5841;SDS011;2947;52.276;9.946;2023-07-29T15:23:13;2.88;;;1.10;;
5841;SDS011;2947;52.276;9.946;2023-07-29T15:25:39;3.05;;;1.17;;
5841;SDS011;2947;52.276;9.946;2023-07-29T15:28:04;2.22;;;1.00;;
5841;SDS011;2947;52.276;9.946;2023-07-29T15:30:30;2.90;;;1.02;;